createdAt,value
2019-04-07T00:00:24.930Z,62.37
2019-04-07T00:02:55.692Z,61.78
2019-04-07T00:05:26.586Z,62.41
2019-04-07T00:07:59.171Z,62.77
2019-04-07T00:10:29.612Z,62.53
2019-04-07T00:13:00.157Z,62.25
2019-04-07T00:15:30.538Z,62.18
2019-04-07T00:18:01.030Z,62.25
2019-04-07T00:20:32.097Z,62.34
2019-04-07T00:23:02.551Z,62.03
2019-04-07T00:25:32.855Z,62.25
2019-04-07T00:28:03.202Z,62.27
2019-04-07T00:30:33.508Z,62.21
2019-04-07T00:33:05.154Z,62.90
2019-04-07T00:35:35.595Z,63.02
2019-04-07T00:38:06.017Z,63.30
2019-04-07T00:40:37.190Z,63.58
2019-04-07T00:43:07.640Z,64.37
2019-04-07T00:45:38.035Z,63.84
2019-04-07T00:48:09.046Z,63.82
2019-04-07T00:50:39.643Z,63.49
2019-04-07T00:53:10.394Z,63.41
2019-04-07T00:55:41.750Z,63.45
2019-04-07T00:58:12.824Z,63.81
2019-04-07T01:00:43.698Z,64.15
2019-04-07T01:03:14.805Z,64.68
2019-04-07T01:05:45.809Z,64.97
2019-04-07T01:08:17.160Z,65.04
2019-04-07T01:10:48.061Z,64.78
2019-04-07T01:13:18.597Z,64.81
2019-04-07T01:15:49.392Z,65.14
2019-04-07T01:18:19.834Z,65.57
2019-04-07T01:20:50.258Z,65.52
2019-04-07T01:23:20.947Z,65.74
2019-04-07T01:25:52.214Z,65.76
2019-04-07T01:28:22.843Z,66.16
2019-04-07T01:30:53.388Z,65.91
2019-04-07T01:33:24.671Z,65.38
2019-04-07T01:35:55.183Z,65.85
2019-04-07T01:38:25.793Z,65.61
2019-04-07T01:41:12.977Z,66.05
2019-04-07T01:43:51.567Z,64.94
2019-04-07T01:46:37.998Z,64.74
2019-04-07T01:49:24.751Z,64.72
2019-04-07T01:52:14.239Z,64.99
2019-04-07T01:55:12.876Z,65.39
2019-04-07T01:58:14.221Z,65.66
2019-04-07T02:01:12.935Z,65.46
2019-04-07T02:04:02.747Z,65.22
2019-04-07T02:06:50.881Z,65.34
2019-04-07T02:09:32.470Z,65.93
2019-04-07T02:12:20.375Z,65.81
2019-04-07T02:15:10.535Z,66.25
2019-04-07T02:18:03.649Z,65.75
2019-04-07T02:21:05.411Z,66.49
2019-04-07T02:23:58.046Z,66.41
2019-04-07T02:26:47.386Z,66.69
2019-04-07T02:29:45.781Z,66.38
2019-04-07T02:32:35.660Z,66.15
2019-04-07T02:35:25.853Z,66.13
2019-04-07T02:38:17.076Z,66.59
2019-04-07T02:41:06.076Z,66.71
2019-04-07T02:44:13.929Z,67.36
2019-04-07T02:47:07.155Z,66.81
2019-04-07T02:49:56.426Z,66.80
2019-04-07T02:52:49.150Z,67.03
2019-04-07T02:55:31.979Z,67.02
2019-04-07T02:58:18.852Z,67.17
2019-04-07T03:01:01.922Z,67.43
2019-04-07T03:03:42.844Z,66.94
2019-04-07T03:06:34.640Z,67.03
2019-04-07T03:09:15.463Z,67.15
2019-04-07T03:11:58.217Z,67.39
2019-04-07T03:14:39.214Z,68.00
2019-04-07T03:17:41.603Z,68.11
2019-04-07T03:20:25.563Z,68.37
2019-04-07T03:23:07.412Z,67.40
2019-04-07T03:25:53.623Z,67.91
2019-04-07T03:28:42.262Z,67.74
2019-04-07T03:31:36.282Z,68.27
2019-04-07T03:34:14.744Z,67.79
2019-04-07T03:37:19.268Z,67.34
2019-04-07T03:39:49.598Z,67.62
2019-04-07T03:42:35.831Z,68.18
2019-04-07T03:45:18.724Z,68.03
2019-04-07T03:47:54.742Z,68.22
2019-04-07T03:50:56.855Z,68.38
2019-04-07T03:53:37.875Z,68.15
2019-04-07T03:56:26.226Z,68.33
2019-04-07T03:59:03.607Z,68.60
2019-04-07T04:01:59.137Z,68.25
2019-04-07T04:04:41.515Z,68.18
2019-04-07T04:07:47.239Z,68.16
2019-04-07T04:10:28.938Z,68.67
2019-04-07T04:13:21.809Z,69.27
2019-04-07T04:16:03.006Z,69.21
2019-04-07T04:18:33.579Z,69.37
2019-04-07T04:21:03.992Z,69.23
2019-04-07T04:23:34.465Z,69.02
2019-04-07T04:26:05.009Z,69.29
2019-04-07T04:28:35.350Z,69.52
2019-04-07T04:31:06.637Z,69.96
2019-04-07T04:33:37.907Z,69.55
2019-04-07T04:36:08.400Z,69.48
2019-04-07T04:38:38.836Z,69.53
2019-04-07T04:41:10.074Z,69.66
2019-04-07T04:43:40.695Z,70.11
2019-04-07T04:46:30.528Z,69.51
2019-04-07T04:49:01.042Z,69.91
2019-04-07T04:51:36.323Z,69.52
2019-04-07T04:54:03.933Z,70.32
2019-04-07T04:56:34.575Z,70.39
2019-04-07T04:59:04.979Z,70.11
2019-04-07T05:01:36.144Z,70.47
2019-04-07T05:04:07.482Z,69.57
2019-04-07T05:06:38.066Z,69.21
2019-04-07T05:09:09.536Z,69.70
2019-04-07T05:11:40.798Z,69.18
2019-04-07T05:14:11.442Z,69.12
2019-04-07T05:16:42.503Z,69.34
2019-04-07T05:19:13.069Z,68.78
2019-04-07T05:21:43.622Z,68.92
2019-04-07T05:24:14.743Z,68.28
2019-04-07T05:26:45.560Z,67.81
2019-04-07T05:29:15.931Z,67.53
2019-04-07T05:31:46.349Z,68.89
2019-04-07T05:34:20.534Z,67.59
2019-04-07T05:36:48.992Z,67.70
2019-04-07T05:39:19.477Z,67.87
2019-04-07T05:41:49.859Z,67.10
2019-04-07T05:44:20.228Z,66.67
2019-04-07T05:46:50.705Z,66.23
2019-04-07T05:49:22.571Z,65.71
2019-04-07T05:51:53.387Z,66.00
2019-04-07T05:54:24.067Z,65.19
2019-04-07T05:56:58.616Z,64.80
2019-04-07T05:59:26.631Z,64.97
2019-04-07T06:02:00.715Z,64.58
2019-04-07T06:04:29.204Z,64.50
2019-04-07T06:07:00.326Z,64.28
2019-04-07T06:09:33.673Z,63.44
2019-04-07T06:12:08.465Z,63.58
2019-04-07T06:14:35.370Z,63.92
2019-04-07T06:17:06.500Z,63.24
2019-04-07T06:19:39.527Z,62.48
2019-04-07T06:22:09.157Z,61.63
2019-04-07T06:24:39.512Z,61.56
2019-04-07T06:27:09.953Z,62.05
2019-04-07T06:29:40.354Z,61.56
2019-04-07T06:32:11.236Z,61.36
2019-04-07T06:34:43.653Z,61.37
2019-04-07T06:37:14.529Z,60.40
2019-04-07T06:39:47.017Z,60.43
2019-04-07T06:42:17.598Z,59.84
2019-04-07T06:44:50.066Z,60.16
2019-04-07T06:47:26.015Z,60.38
2019-04-07T06:50:45.509Z,60.08
2019-04-07T06:53:22.209Z,60.11
2019-04-07T06:56:11.593Z,59.40
2019-04-07T06:59:00.939Z,59.00
2019-04-07T07:01:49.329Z,58.90
2019-04-07T07:04:41.604Z,58.19
2019-04-07T07:07:30.547Z,57.51
2019-04-07T07:10:26.816Z,56.90
2019-04-07T07:13:25.835Z,57.24
2019-04-07T07:16:12.461Z,57.94
2019-04-07T07:19:10.658Z,58.07
2019-04-07T07:22:12.581Z,58.34
2019-04-07T07:24:39.244Z,58.99
2019-04-07T07:27:11.307Z,58.92
2019-04-07T07:29:45.405Z,58.92
2019-04-07T07:32:14.837Z,58.67
2019-04-07T07:34:45.396Z,57.25
2019-04-07T07:37:15.847Z,55.44
2019-04-07T07:39:47.097Z,54.20
2019-04-07T07:42:21.479Z,53.72
2019-04-07T07:44:50.351Z,53.10
2019-04-07T07:47:22.601Z,53.54
2019-04-07T07:49:53.680Z,53.90
2019-04-07T07:52:24.302Z,54.89
2019-04-07T07:54:55.209Z,54.95
2019-04-07T07:57:26.094Z,54.69
2019-04-07T07:59:57.359Z,53.98
2019-04-07T08:02:31.754Z,51.73
2019-04-07T08:05:03.191Z,50.92
2019-04-07T08:07:33.712Z,50.16
2019-04-07T08:10:04.877Z,49.83
2019-04-07T08:12:35.842Z,48.39
2019-04-07T08:15:08.086Z,48.92
2019-04-07T08:17:38.581Z,49.70
2019-04-07T08:20:11.361Z,50.61
2019-04-07T08:22:43.636Z,50.74
2019-04-07T08:25:14.238Z,49.84
2019-04-07T08:27:45.274Z,50.09
2019-04-07T08:30:17.326Z,49.24
2019-04-07T08:32:47.999Z,49.15
2019-04-07T08:35:18.675Z,48.56
2019-04-07T08:37:50.012Z,50.28
2019-04-07T08:40:20.965Z,50.85
2019-04-07T08:42:52.140Z,50.56
2019-04-07T08:45:23.110Z,50.72
2019-04-07T08:47:53.741Z,50.21
2019-04-07T08:50:27.712Z,48.67
2019-04-07T08:52:56.479Z,50.09
2019-04-07T08:55:28.231Z,49.56
2019-04-07T08:58:01.691Z,48.67
2019-04-07T09:00:31.629Z,46.98
2019-04-07T09:03:07.685Z,44.42
2019-04-07T09:05:34.427Z,43.71
2019-04-07T09:08:06.013Z,43.09
2019-04-07T09:10:43.013Z,40.55
2019-04-07T09:13:13.566Z,39.09
2019-04-07T09:15:56.754Z,38.17
2019-04-07T09:18:32.061Z,38.03
2019-04-07T09:21:22.499Z,36.68
2019-04-07T09:24:21.347Z,35.89
2019-04-07T09:27:17.161Z,35.80
2019-04-07T09:29:53.487Z,38.55
2019-04-07T09:32:52.378Z,37.94
2019-04-07T09:35:41.265Z,34.37
2019-04-07T09:38:36.645Z,34.17
2019-04-07T09:41:35.264Z,33.78
2019-04-07T09:44:21.935Z,34.03
2019-04-07T09:47:16.452Z,31.33
2019-04-07T09:50:04.855Z,33.05
2019-04-07T09:53:06.198Z,32.46
2019-04-07T09:55:59.198Z,31.97
2019-04-07T09:58:42.746Z,31.50
2019-04-07T10:01:44.655Z,31.12
2019-04-07T10:04:46.143Z,30.52
2019-04-07T10:07:47.890Z,29.65
2019-04-07T10:10:49.458Z,27.84
2019-04-07T10:13:57.720Z,26.21
2019-04-07T10:16:46.091Z,27.11
2019-04-07T10:19:26.916Z,26.87
2019-04-07T10:22:06.109Z,28.87
2019-04-07T10:24:50.237Z,30.36
2019-04-07T10:27:31.305Z,31.56
2019-04-07T10:30:33.148Z,31.74
2019-04-07T10:33:10.301Z,33.72
2019-04-07T10:35:58.526Z,35.97
2019-04-07T10:38:41.477Z,34.91
2019-04-07T10:41:38.268Z,35.71
2019-04-07T10:44:26.422Z,35.02
2019-04-07T10:47:19.444Z,36.55
2019-04-07T10:50:06.221Z,35.86
2019-04-07T10:53:10.344Z,34.10
2019-04-07T10:56:08.934Z,35.06
2019-04-07T10:58:58.338Z,33.64
2019-04-07T11:01:45.781Z,34.56
2019-04-07T11:04:38.769Z,35.50
2019-04-07T11:07:25.894Z,36.89
2019-04-07T11:10:32.571Z,37.00
2019-04-07T11:13:13.676Z,35.74
2019-04-07T11:16:06.216Z,35.97
2019-04-07T11:19:07.877Z,38.97
2019-04-07T11:21:44.850Z,39.60
2019-04-07T11:24:35.106Z,39.18
2019-04-07T11:27:15.543Z,39.10
2019-04-07T11:29:58.444Z,38.72
2019-04-07T11:32:47.974Z,38.36
2019-04-07T11:35:31.081Z,37.00
2019-04-07T11:38:24.097Z,36.74
2019-04-07T11:41:28.862Z,37.26
2019-04-07T11:44:14.997Z,36.00
2019-04-07T11:46:59.455Z,35.35
2019-04-07T11:49:55.190Z,35.40
2019-04-07T11:52:34.030Z,34.62
2019-04-07T11:55:18.428Z,33.81
2019-04-07T11:58:09.751Z,33.40
2019-04-07T12:00:43.715Z,33.10
2019-04-07T12:03:35.912Z,30.95
2019-04-07T12:06:25.487Z,31.21
2019-04-07T12:09:08.510Z,32.36
2019-04-07T12:11:57.238Z,33.59
2019-04-07T12:14:55.578Z,34.39
2019-04-07T12:17:44.901Z,36.14
2019-04-07T12:20:22.726Z,37.64
2019-04-07T12:23:03.590Z,37.69
2019-04-07T12:26:11.330Z,38.39
2019-04-07T12:29:01.325Z,38.66
2019-04-07T12:31:48.752Z,40.13
2019-04-07T12:34:29.695Z,40.11
2019-04-07T12:37:17.488Z,38.98
2019-04-07T12:40:04.334Z,37.74
2019-04-07T12:42:45.486Z,38.77
2019-04-07T12:45:28.522Z,37.12
2019-04-07T12:48:11.652Z,35.65
2019-04-07T12:51:04.036Z,36.98
2019-04-07T12:54:07.479Z,37.92
2019-04-07T12:56:48.924Z,36.91
2019-04-07T12:59:34.695Z,31.96
2019-04-07T13:02:22.940Z,28.18
2019-04-07T13:05:18.609Z,27.69
2019-04-07T13:08:11.184Z,26.58
2019-04-07T13:10:48.011Z,26.12
2019-04-07T13:13:47.046Z,24.40
2019-04-07T13:16:35.901Z,24.68
2019-04-07T13:19:25.351Z,25.24
2019-04-07T13:22:17.123Z,24.86
2019-04-07T13:25:22.646Z,26.74
2019-04-07T13:28:08.295Z,27.50
2019-04-07T13:30:54.710Z,28.82
2019-04-07T13:33:37.199Z,29.99
2019-04-07T13:36:28.440Z,29.44
2019-04-07T13:39:27.002Z,30.11
2019-04-07T13:42:08.844Z,31.29
2019-04-07T13:45:04.509Z,32.53
2019-04-07T13:48:05.534Z,33.80
2019-04-07T13:50:53.003Z,34.65
2019-04-07T13:53:32.867Z,36.10
2019-04-07T13:56:15.718Z,37.50
2019-04-07T13:58:56.617Z,37.59
2019-04-07T14:01:52.424Z,38.05
2019-04-07T14:04:40.608Z,37.71
2019-04-07T14:07:35.394Z,38.15
2019-04-07T14:10:25.975Z,38.56
2019-04-07T14:13:21.030Z,35.76
2019-04-07T14:16:08.381Z,36.70
2019-04-07T14:19:03.997Z,36.48
2019-04-07T14:21:39.755Z,35.63
2019-04-07T14:24:35.152Z,37.17
2019-04-07T14:27:30.975Z,37.10
2019-04-07T14:30:24.301Z,35.31
2019-04-07T14:33:13.720Z,35.69
2019-04-07T14:35:49.900Z,34.93
2019-04-07T14:38:40.201Z,34.13
2019-04-07T14:41:43.423Z,33.69
2019-04-07T14:44:33.497Z,32.90
2019-04-07T14:47:09.694Z,32.94
2019-04-07T14:50:04.983Z,32.90
2019-04-07T14:52:42.652Z,33.57
2019-04-07T14:55:20.713Z,34.97
2019-04-07T14:57:57.784Z,34.38
2019-04-07T15:00:49.108Z,35.31
2019-04-07T15:03:20.254Z,35.93
2019-04-07T15:05:55.269Z,36.53
2019-04-07T15:08:32.522Z,37.44
2019-04-07T15:11:08.931Z,39.01
2019-04-07T15:13:40.461Z,39.10
2019-04-07T15:16:11.204Z,39.57
2019-04-07T15:18:42.170Z,39.41
2019-04-07T15:21:13.423Z,38.97
2019-04-07T15:23:46.822Z,39.08
2019-04-07T15:26:16.950Z,38.72
2019-04-07T15:28:49.233Z,39.88
2019-04-07T15:31:20.763Z,38.75
2019-04-07T15:33:52.198Z,38.88
2019-04-07T15:36:23.222Z,39.14
2019-04-07T15:38:55.920Z,38.70
2019-04-07T15:41:26.048Z,38.18
2019-04-07T15:43:57.339Z,39.51
2019-04-07T15:46:28.801Z,40.00
2019-04-07T15:49:00.305Z,39.87
2019-04-07T15:51:34.122Z,40.49
2019-04-07T15:54:02.826Z,40.00
2019-04-07T15:56:33.654Z,39.74
2019-04-07T15:59:04.166Z,40.17
2019-04-07T16:01:38.004Z,40.07
2019-04-07T16:04:07.030Z,41.19
2019-04-07T16:06:37.386Z,41.36
2019-04-07T16:09:16.731Z,41.38
2019-04-07T16:11:41.376Z,41.28
2019-04-07T16:14:13.637Z,41.04
2019-04-07T16:16:43.939Z,40.78
2019-04-07T16:19:19.782Z,41.01
2019-04-07T16:21:46.603Z,40.73
2019-04-07T16:24:17.836Z,41.31
2019-04-07T16:26:48.354Z,42.03
2019-04-07T16:29:20.073Z,42.36
2019-04-07T16:31:51.749Z,42.61
2019-04-07T16:34:22.825Z,42.57
2019-04-07T16:36:57.328Z,42.24
2019-04-07T16:39:26.603Z,42.31
2019-04-07T16:41:57.891Z,40.95
2019-04-07T16:44:28.650Z,42.32
2019-04-07T16:47:02.892Z,41.71
2019-04-07T16:49:31.570Z,42.32
2019-04-07T16:52:03.258Z,42.00
2019-04-07T16:54:34.087Z,42.77
2019-04-07T16:57:05.197Z,42.15
2019-04-07T16:59:36.613Z,41.58
2019-04-07T17:02:09.110Z,41.96
2019-04-07T17:04:39.586Z,41.68
2019-04-07T17:07:14.316Z,42.82
2019-04-07T17:09:42.617Z,43.11
2019-04-07T17:12:13.778Z,42.45
2019-04-07T17:14:44.814Z,42.31
2019-04-07T17:17:18.253Z,42.00
2019-04-07T17:19:47.794Z,43.51
2019-04-07T17:22:18.357Z,43.59
2019-04-07T17:24:48.799Z,43.08
2019-04-07T17:27:19.424Z,43.79
2019-04-07T17:29:53.542Z,44.70
2019-04-07T17:32:22.094Z,45.66
2019-04-07T17:34:53.028Z,45.69
2019-04-07T17:37:25.915Z,46.70
2019-04-07T17:40:01.512Z,46.68
2019-04-07T17:42:32.354Z,47.17
2019-04-07T17:45:22.511Z,46.71
2019-04-07T17:48:19.112Z,47.24
2019-04-07T17:51:17.891Z,46.65
2019-04-07T17:53:56.077Z,47.71
2019-04-07T17:56:38.169Z,48.30
2019-04-07T17:59:35.650Z,49.34
2019-04-07T18:02:22.872Z,49.08
2019-04-07T18:05:10.689Z,49.38
2019-04-07T18:08:14.296Z,49.64
2019-04-07T18:11:02.347Z,49.33
2019-04-07T18:14:02.041Z,49.54
2019-04-07T18:17:04.480Z,50.85
2019-04-07T18:20:08.599Z,51.45
2019-04-07T18:22:56.913Z,52.31
2019-04-07T18:25:37.921Z,50.88
2019-04-07T18:28:21.529Z,50.47
2019-04-07T18:31:08.045Z,50.25
2019-04-07T18:33:57.753Z,50.25
2019-04-07T18:36:50.417Z,50.37
2019-04-07T18:39:43.069Z,51.00
2019-04-07T18:42:24.208Z,51.85
2019-04-07T18:45:16.530Z,51.92
2019-04-07T18:48:01.116Z,52.15
2019-04-07T18:50:40.076Z,52.54
2019-04-07T18:53:38.497Z,52.51
2019-04-07T18:56:38.626Z,52.76
2019-04-07T18:59:20.247Z,53.23
2019-04-07T19:02:19.308Z,54.12
2019-04-07T19:05:13.197Z,54.23
2019-04-07T19:08:02.639Z,54.65
2019-04-07T19:11:12.308Z,55.17
2019-04-07T19:14:21.843Z,55.13
2019-04-07T19:16:49.246Z,55.57
2019-04-07T19:19:29.777Z,55.91
2019-04-07T19:22:28.643Z,55.86
2019-04-07T19:25:11.767Z,55.78
2019-04-07T19:28:00.030Z,55.47
2019-04-07T19:30:43.687Z,55.44
2019-04-07T19:33:32.368Z,55.98
2019-04-07T19:36:21.328Z,56.05
2019-04-07T19:39:09.349Z,56.86
2019-04-07T19:42:14.462Z,56.97
2019-04-07T19:45:04.348Z,56.90
2019-04-07T19:48:06.442Z,57.15
2019-04-07T19:51:03.245Z,57.72
2019-04-07T19:53:53.547Z,57.85
2019-04-07T19:56:35.741Z,57.54
2019-04-07T19:59:28.139Z,57.87
2019-04-07T20:02:17.587Z,57.90
2019-04-07T20:04:57.803Z,58.77
2019-04-07T20:07:46.265Z,59.12
2019-04-07T20:10:24.496Z,58.94
2019-04-07T20:13:22.079Z,59.10
2019-04-07T20:16:13.683Z,59.47
2019-04-07T20:19:06.538Z,59.85
2019-04-07T20:21:53.325Z,59.84
2019-04-07T20:24:40.984Z,60.04
2019-04-07T20:27:29.762Z,60.06
2019-04-07T20:30:21.581Z,59.96
2019-04-07T20:33:31.407Z,59.46
2019-04-07T20:36:23.502Z,60.04
2019-04-07T20:39:03.987Z,59.59
2019-04-07T20:41:52.521Z,59.39
2019-04-07T20:44:36.505Z,59.57
2019-04-07T20:47:32.209Z,59.89
2019-04-07T20:50:21.717Z,60.22
2019-04-07T20:53:26.397Z,60.17
2019-04-07T20:56:18.664Z,60.53
2019-04-07T20:59:18.286Z,62.00
2019-04-07T21:02:12.519Z,61.33
2019-04-07T21:05:04.711Z,61.08
2019-04-07T21:07:57.756Z,60.76
2019-04-07T21:10:51.850Z,60.44
2019-04-07T21:13:54.558Z,60.92
2019-04-07T21:16:43.254Z,62.05
2019-04-07T21:19:35.485Z,62.57
2019-04-07T21:22:19.946Z,63.56
2019-04-07T21:25:03.888Z,64.06
2019-04-07T21:27:53.344Z,64.54
2019-04-07T21:30:34.030Z,64.58
2019-04-07T21:33:25.594Z,64.92
2019-04-07T21:36:14.233Z,64.87
2019-04-07T21:39:04.577Z,65.03
2019-04-07T21:42:10.362Z,65.11
2019-04-07T21:45:07.206Z,64.83
2019-04-07T21:47:57.278Z,65.22
2019-04-07T21:50:48.148Z,65.02
2019-04-07T21:53:38.192Z,65.84
2019-04-07T21:56:26.444Z,65.85
2019-04-07T21:59:15.207Z,65.75
2019-04-07T22:02:03.547Z,66.14
2019-04-07T22:04:59.041Z,66.13
2019-04-07T22:07:48.014Z,66.90
2019-04-07T22:10:20.766Z,67.15
2019-04-07T22:12:51.931Z,68.52
2019-04-07T22:15:22.630Z,68.49
2019-04-07T22:17:54.158Z,68.32
2019-04-07T22:20:25.085Z,68.25
2019-04-07T22:22:59.175Z,68.49
2019-04-07T22:25:36.181Z,68.58
2019-04-07T22:28:05.611Z,69.34
2019-04-07T22:30:39.208Z,68.87
2019-04-07T22:33:09.198Z,69.09
2019-04-07T22:35:42.695Z,69.85
2019-04-07T22:38:12.390Z,69.49
2019-04-07T22:40:43.643Z,69.28
2019-04-07T22:43:19.877Z,69.46
2019-04-07T22:45:59.131Z,70.71
2019-04-07T22:48:26.536Z,70.49
2019-04-07T22:50:57.283Z,70.52
2019-04-07T22:53:30.122Z,70.56
2019-04-07T22:55:59.342Z,70.41
2019-04-07T22:58:29.908Z,70.41
2019-04-07T23:01:00.686Z,70.76
2019-04-07T23:03:31.385Z,70.54
2019-04-07T23:09:43.520Z,69.57
2019-04-07T23:12:14.754Z,70.12
2019-04-07T23:14:45.191Z,70.53
2019-04-07T23:17:15.565Z,71.11
2019-04-07T23:19:46.266Z,70.86
2019-04-07T23:22:17.944Z,70.64
2019-04-07T23:24:48.582Z,71.81
2019-04-07T23:27:20.004Z,70.78
2019-04-07T23:29:50.788Z,71.91
2019-04-07T23:32:21.340Z,71.86
2019-04-07T23:34:52.048Z,72.05
2019-04-07T23:37:22.606Z,71.47
2019-04-07T23:39:53.751Z,71.10
2019-04-07T23:42:24.311Z,71.01
2019-04-07T23:44:55.180Z,70.94
2019-04-07T23:47:25.676Z,70.60
2019-04-07T23:49:56.049Z,71.33
2019-04-07T23:52:27.190Z,70.46
2019-04-07T23:54:57.536Z,70.16
2019-04-07T23:57:27.949Z,70.31
2019-04-07T23:59:58.391Z,71.04
